createdAt,value
2022-08-09T00:01:54.687Z,97265.78
2022-08-09T00:04:34.738Z,97259.91
2022-08-09T00:07:03.778Z,97259.66
2022-08-09T00:09:38.162Z,97262.63
2022-08-09T00:12:07.850Z,97263.53
2022-08-09T00:14:37.872Z,97257.09
2022-08-09T00:17:06.226Z,97255.56
2022-08-09T00:19:34.061Z,97259.34
2022-08-09T00:22:03.465Z,97263.47
2022-08-09T00:24:31.923Z,97264.34
2022-08-09T00:27:00.254Z,97267.69
2022-08-09T00:30:16.520Z,97264.06
2022-08-09T00:32:35.767Z,97266.56
2022-08-09T00:35:03.734Z,97264.34
2022-08-09T00:37:32.458Z,97269.06
2022-08-09T00:40:08.937Z,97265.84
2022-08-09T00:44:14.738Z,97276.06
2022-08-09T00:45:30.990Z,97278.34
2022-08-09T00:48:03.120Z,97272.31
2022-08-09T00:50:31.235Z,97279.28
2022-08-09T00:52:58.872Z,97278.34
2022-08-09T00:55:54.200Z,97279.81
2022-08-09T00:58:14.672Z,97280.03
2022-08-09T01:00:44.896Z,97285.56
2022-08-09T01:03:17.762Z,97285.41
2022-08-09T01:05:54.088Z,97292.16
2022-08-09T01:08:30.776Z,97286.25
2022-08-09T01:11:15.469Z,97288.91
2022-08-09T01:13:58.987Z,97286.06
2022-08-09T01:16:36.071Z,97286.66
2022-08-09T01:19:16.711Z,97286.25
2022-08-09T01:22:12.381Z,97287.53
2022-08-09T01:24:54.967Z,97282.91
2022-08-09T01:27:27.465Z,97286.56
2022-08-09T01:29:58.609Z,97288.78
2022-08-09T01:32:34.146Z,97286.72
2022-08-09T01:35:18.073Z,97285.47
2022-08-09T01:38:08.311Z,97284.22
2022-08-09T01:40:42.818Z,97277.47
2022-08-09T01:43:12.270Z,97278.63
2022-08-09T01:45:46.251Z,97277.63
2022-08-09T01:48:17.317Z,97273.13
2022-08-09T01:50:49.014Z,97283.94
2022-08-09T01:53:23.824Z,97278.50
2022-08-09T01:55:57.801Z,97271.00
2022-08-09T01:58:30.751Z,97275.09
2022-08-09T02:01:00.159Z,97279.78
2022-08-09T02:03:30.454Z,97277.41
2022-08-09T02:06:06.648Z,97274.97
2022-08-09T02:08:57.025Z,97281.88
2022-08-09T02:11:42.842Z,97274.09
2022-08-09T02:14:25.626Z,97287.44
2022-08-09T02:16:59.524Z,97281.16
2022-08-09T02:19:43.699Z,97287.03
2022-08-09T02:22:17.775Z,97282.31
2022-08-09T02:24:58.373Z,97284.53
2022-08-09T02:27:57.928Z,97285.31
2022-08-09T02:30:19.621Z,97284.53
2022-08-09T02:32:49.498Z,97282.91
2022-08-09T02:35:46.362Z,97292.25
2022-08-09T02:38:11.527Z,97291.88
2022-08-09T02:40:50.561Z,97283.78
2022-08-09T02:43:21.330Z,97288.69
2022-08-09T02:45:51.518Z,97288.31
2022-08-09T02:48:30.660Z,97286.56
2022-08-09T02:51:02.578Z,97282.16
2022-08-09T02:53:35.444Z,97282.38
2022-08-09T02:56:04.954Z,97281.56
2022-08-09T02:58:37.423Z,97279.50
2022-08-09T03:01:11.124Z,97280.09
2022-08-09T03:04:18.134Z,97277.47
2022-08-09T03:06:32.824Z,97274.00
2022-08-09T03:09:02.514Z,97277.88
2022-08-09T03:12:06.473Z,97280.31
2022-08-09T03:14:21.784Z,97279.06
2022-08-09T03:16:56.473Z,97283.56
2022-08-09T03:19:58.790Z,97283.56
2022-08-09T03:22:25.015Z,97268.88
2022-08-09T03:25:05.978Z,97274.50
2022-08-09T03:27:44.865Z,97281.44
2022-08-09T03:30:14.395Z,97280.38
2022-08-09T03:33:01.458Z,97277.59
2022-08-09T03:36:11.220Z,97273.78
2022-08-09T03:38:28.870Z,97280.75
2022-08-09T03:40:57.944Z,97286.53
2022-08-09T03:43:31.577Z,97285.78
2022-08-09T03:46:04.790Z,97292.72
2022-08-09T03:48:52.158Z,97291.91
2022-08-09T03:51:44.025Z,97287.44
2022-08-09T03:54:11.128Z,97290.91
2022-08-09T03:56:41.109Z,97296.19
2022-08-09T03:59:13.539Z,97294.75
2022-08-09T04:01:45.836Z,97297.03
2022-08-09T04:04:16.147Z,97298.50
2022-08-09T04:06:48.697Z,97305.38
2022-08-09T04:09:42.039Z,97306.44
2022-08-09T04:12:30.693Z,97308.31
2022-08-09T04:15:01.403Z,97314.03
2022-08-09T04:17:29.971Z,97311.59
2022-08-09T04:20:02.629Z,97313.22
2022-08-09T04:22:32.094Z,97312.41
2022-08-09T04:25:00.166Z,97320.09
2022-08-09T04:27:29.311Z,97314.41
2022-08-09T04:29:57.226Z,97320.88
2022-08-09T04:32:33.734Z,97318.41
2022-08-09T04:35:08.715Z,97320.38
2022-08-09T04:37:45.407Z,97321.41
2022-08-09T04:40:19.639Z,97323.59
2022-08-09T04:42:56.827Z,97325.81
2022-08-09T04:45:24.906Z,97327.22
2022-08-09T04:48:03.091Z,97330.47
2022-08-09T04:50:34.973Z,97332.06
2022-08-09T04:53:13.082Z,97338.16
2022-08-09T04:55:58.938Z,97337.94
2022-08-09T04:58:28.006Z,97344.88
2022-08-09T05:00:56.789Z,97346.09
2022-08-09T05:03:40.057Z,97343.09
2022-08-09T05:06:25.839Z,97352.03
2022-08-09T05:08:59.817Z,97349.63
2022-08-09T05:11:32.192Z,97357.31
2022-08-09T05:14:05.911Z,97363.63
2022-08-09T05:16:34.467Z,97356.50
2022-08-09T05:19:31.717Z,97362.19
2022-08-09T05:25:01.013Z,97369.81
2022-08-09T05:27:34.734Z,97366.97
2022-08-09T05:30:23.820Z,97371.59
2022-08-09T05:33:00.594Z,97377.06
2022-08-09T05:35:33.784Z,97377.81
2022-08-09T05:38:21.812Z,97382.66
2022-08-09T05:40:57.983Z,97377.75
2022-08-09T05:43:31.843Z,97382.97
2022-08-09T05:46:07.189Z,97382.13
2022-08-09T05:48:39.567Z,97384.09
2022-08-09T05:51:41.563Z,97378.75
2022-08-09T05:54:09.035Z,97382.34
2022-08-09T05:56:54.950Z,97384.94
2022-08-09T05:59:30.002Z,97385.06
2022-08-09T06:02:03.986Z,97387.91
2022-08-09T06:07:26.651Z,97389.38
2022-08-09T06:15:24.779Z,97389.94
2022-08-09T06:17:59.405Z,97397.00
2022-08-09T06:20:29.372Z,97389.63
2022-08-09T06:23:15.831Z,97405.31
2022-08-09T06:25:44.996Z,97403.00
2022-08-09T06:31:30.765Z,97407.13
2022-08-09T06:42:14.801Z,97406.31
2022-08-09T06:56:58.162Z,97414.06
2022-08-09T07:08:11.137Z,97417.78
2022-08-09T08:48:19.374Z,97440.75
2022-08-09T08:54:29.761Z,97436.84
2022-08-09T08:57:01.680Z,97444.38
2022-08-09T08:59:46.685Z,97446.03
2022-08-09T09:06:04.884Z,97454.13
2022-08-09T09:08:40.885Z,97450.38
2022-08-09T09:11:17.854Z,97456.00
2022-08-09T09:13:56.234Z,97445.06
2022-08-09T09:16:30.677Z,97447.75
2022-08-09T09:19:22.579Z,97446.72
2022-08-09T09:22:03.672Z,97449.44
2022-08-09T09:24:37.261Z,97449.19
2022-08-09T09:27:07.304Z,97447.06
2022-08-09T09:30:09.316Z,97445.22
2022-08-09T09:32:34.450Z,97445.78
2022-08-09T09:35:09.099Z,97443.94
2022-08-09T09:37:40.218Z,97438.59
2022-08-09T09:40:12.497Z,97446.38
2022-08-09T09:42:43.026Z,97443.69
2022-08-09T09:45:25.758Z,97443.13
2022-08-09T09:47:58.783Z,97438.06
2022-08-09T09:50:49.376Z,97424.44
2022-08-09T09:53:21.169Z,97430.31
2022-08-09T09:56:04.563Z,97435.16
2022-08-09T09:58:46.557Z,97429.78
2022-08-09T10:01:36.879Z,97430.31
2022-08-09T10:04:09.539Z,97426.59
2022-08-09T10:06:42.534Z,97425.50
2022-08-09T10:09:22.321Z,97421.47
2022-08-09T10:12:11.859Z,97422.81
2022-08-09T10:14:47.965Z,97423.09
2022-08-09T10:17:51.417Z,97414.22
2022-08-09T10:20:31.804Z,97424.44
2022-08-09T10:23:17.475Z,97428.44
2022-08-09T10:26:06.585Z,97434.59
2022-08-09T10:28:39.960Z,97424.66
2022-08-09T10:34:11.216Z,97418.50
2022-08-09T10:36:45.420Z,97416.06
2022-08-09T10:39:15.457Z,97415.81
2022-08-09T10:41:47.745Z,97400.28
2022-08-09T10:44:19.293Z,97403.50
2022-08-09T10:47:28.201Z,97407.75
2022-08-09T10:50:07.084Z,97404.53
2022-08-09T10:52:51.875Z,97409.06
2022-08-09T10:55:24.240Z,97397.00
2022-08-09T10:57:55.520Z,97395.09
2022-08-09T11:01:10.719Z,97409.31
2022-08-09T11:03:49.850Z,97389.22
2022-08-09T11:06:25.178Z,97399.69
2022-08-09T11:08:54.148Z,97392.69
2022-08-09T11:11:23.946Z,97390.78
2022-08-09T11:14:28.257Z,97392.09
2022-08-09T11:16:57.928Z,97385.38
2022-08-09T16:53:11.790Z,97260.81
2022-08-09T17:08:46.510Z,97269.16
2022-08-09T17:14:25.701Z,97268.38
2022-08-09T17:16:56.056Z,97276.44
2022-08-09T17:19:23.604Z,97267.34
2022-08-09T17:21:54.448Z,97275.16
2022-08-09T17:24:30.310Z,97279.69
2022-08-09T17:26:58.581Z,97277.03
2022-08-09T17:29:31.588Z,97276.78
2022-08-09T17:32:05.961Z,97281.06
2022-08-09T17:35:04.074Z,97282.41
2022-08-09T17:37:21.385Z,97284.56
2022-08-09T17:39:53.586Z,97289.41
2022-08-09T17:42:41.181Z,97277.63
2022-08-09T17:45:16.206Z,97278.72
2022-08-09T17:48:02.673Z,97280.59
2022-08-09T17:50:36.995Z,97274.97
2022-08-09T17:53:19.193Z,97275.50
2022-08-09T17:55:49.207Z,97277.63
2022-08-09T17:58:19.113Z,97283.56
2022-08-09T18:00:48.508Z,97292.41
2022-08-09T18:03:17.984Z,97284.09
2022-08-09T18:05:53.005Z,97287.31
2022-08-09T18:08:22.013Z,97277.16
2022-08-09T18:11:02.210Z,97282.00
2022-08-09T18:13:40.886Z,97279.03
2022-08-09T18:16:30.254Z,97288.69
2022-08-09T18:19:04.258Z,97291.09
2022-08-09T18:21:47.131Z,97290.56
2022-08-09T18:24:18.028Z,97287.63
2022-08-09T18:26:46.822Z,97288.44
2022-08-09T18:30:42.269Z,97294.84
2022-08-09T18:32:07.328Z,97294.88
2022-08-09T18:34:36.407Z,97299.69
2022-08-09T18:37:04.587Z,97295.94
2022-08-09T18:39:39.555Z,97301.00
2022-08-09T18:42:09.589Z,97296.72
2022-08-09T18:44:39.555Z,97297.53
2022-08-09T18:47:15.784Z,97303.66
2022-08-09T18:49:46.567Z,97302.84
2022-08-09T18:52:16.054Z,97311.94
2022-08-09T18:54:53.441Z,97313.00
2022-08-09T18:57:22.919Z,97323.16
2022-08-09T18:59:56.339Z,97326.34
2022-08-09T19:02:31.706Z,97329.00
2022-08-09T19:05:14.802Z,97330.06
2022-08-09T19:08:04.938Z,97338.06
2022-08-09T19:10:38.900Z,97337.22
2022-08-09T19:13:20.806Z,97339.88
2022-08-09T19:15:58.680Z,97334.78
2022-08-09T19:18:34.064Z,97341.16
2022-08-09T19:21:09.757Z,97334.16
2022-08-09T19:24:39.577Z,97338.97
2022-08-09T19:26:31.522Z,97347.22
2022-08-09T19:29:01.773Z,97341.56
2022-08-09T19:31:43.959Z,97347.13
2022-08-09T19:34:21.922Z,97344.69
2022-08-09T19:36:51.241Z,97345.72
2022-08-09T19:39:20.844Z,97344.84
2022-08-09T19:42:08.100Z,97355.72
2022-08-09T19:44:36.818Z,97349.28
2022-08-09T19:47:04.975Z,97350.34
2022-08-09T19:50:07.069Z,97348.69
2022-08-09T19:52:26.847Z,97344.91
2022-08-09T19:54:55.346Z,97354.50
2022-08-09T19:57:25.783Z,97351.53
2022-08-09T20:00:05.519Z,97361.09
2022-08-09T20:06:33.729Z,97355.97
2022-08-09T20:09:43.695Z,97357.56
2022-08-09T23:43:09.248Z,97373.13
2022-08-09T23:45:38.465Z,97372.56
2022-08-09T23:48:08.909Z,97371.97
2022-08-09T23:50:37.130Z,97365.88
2022-08-09T23:53:05.437Z,97367.94
2022-08-09T23:55:33.282Z,97374.28
2022-08-09T23:58:10.521Z,97382.50
